Time;durP1;ratioP1;P1;durP2;ratioP2;P2;SDS_P1;SDS_P2;PMS_P1;PMS_P2;Temp;Humidity;BMP_temperature;BMP_pressure;BME280_temperature;BME280_humidity;BME280_pressure;Samples;Min_cycle;Max_cycle;Signal;HPM_P1;HPM_P2
2023/11/27 00:01:33;;;;;;;;;14.80;13.00;;;;;5.16;100.00;98134.34;6191677;28;96790;-74
2023/11/27 00:04:36;;;;;;;;;10.00;10.00;;;;;5.16;98.20;98120.16;6184571;28;96766;-75
2023/11/27 00:07:39;;;;;;;;;12.40;11.40;;;;;5.21;97.86;98134.53;6160130;28;96604;-75
2023/11/27 00:10:42;;;;;;;;;15.40;14.00;;;;;5.07;95.44;98137.41;6177869;28;96816;-75
2023/11/27 00:13:47;;;;;;;;;12.60;12.00;;;;;5.11;96.73;98135.97;6161203;28;96785;-76
2023/11/27 00:16:50;;;;;;;;;11.20;11.00;;;;;5.10;95.88;98127.13;6168393;28;96557;-64
2023/11/27 00:19:53;;;;;;;;;13.75;13.75;;;;;5.18;95.56;98132.25;6170394;28;96690;-63
2023/11/27 00:22:56;;;;;;;;;12.20;11.20;;;;;5.13;95.24;98120.56;6153665;28;98403;-64
2023/11/27 00:26:00;;;;;;;;;12.40;10.40;;;;;5.14;93.30;98130.22;6170392;28;96540;-63
2023/11/27 00:29:05;;;;;;;;;11.50;10.50;;;;;5.11;93.44;98131.47;6169926;28;96305;-64
2023/11/27 00:32:08;;;;;;;;;10.50;9.50;;;;;4.76;92.87;98084.59;6161694;28;96810;-63
2023/11/27 00:35:12;;;;;;;;;13.00;12.00;;;;;5.04;93.27;98135.13;6143541;28;98361;-64
2023/11/27 00:38:15;;;;;;;;;15.50;15.00;;;;;4.95;94.25;98117.66;6186367;28;96548;-64
2023/11/27 00:41:18;;;;;;;;;10.50;10.00;;;;;5.10;94.68;98132.47;6186394;28;96320;-63
2023/11/27 00:44:23;;;;;;;;;12.00;12.00;;;;;5.01;94.98;98125.69;6169168;28;98728;-63
2023/11/27 00:47:26;;;;;;;;;15.00;13.00;;;;;5.04;93.28;98125.28;6183417;28;97255;-64
2023/11/27 00:50:29;;;;;;;;;14.40;13.80;;;;;5.05;94.74;98123.44;6185584;28;96783;-64
2023/11/27 00:53:33;;;;;;;;;13.80;13.60;;;;;5.03;96.10;98128.19;6186380;28;96471;-65
2023/11/27 00:56:37;;;;;;;;;13.00;12.00;;;;;5.00;94.61;98115.22;6161696;28;96690;-64
2023/11/27 00:59:41;;;;;;;;;14.20;13.00;;;;;5.14;95.32;98112.34;6186291;28;96482;-64
2023/11/27 01:02:45;;;;;;;;;11.60;11.60;;;;;5.20;95.76;98095.50;6169204;28;96929;-65
2023/11/27 01:05:49;;;;;;;;;10.00;9.20;;;;;5.17;95.07;98089.75;6172812;28;98277;-64
2023/11/27 01:08:52;;;;;;;;;13.00;12.00;;;;;5.21;94.53;98088.28;6158192;28;96813;-64
2023/11/27 01:11:55;;;;;;;;;12.80;11.80;;;;;5.23;94.86;98084.38;6192263;28;96767;-63
2023/11/27 01:14:59;;;;;;;;;13.00;12.00;;;;;5.19;94.24;98087.66;6174069;28;96803;-64
2023/11/27 01:18:03;;;;;;;;;10.60;10.60;;;;;5.19;93.96;98076.97;6174055;28;96369;-63
2023/11/27 01:21:06;;;;;;;;;10.25;9.25;;;;;5.21;94.62;98074.94;6174541;28;96177;-64
2023/11/27 01:24:10;;;;;;;;;8.80;7.80;;;;;5.23;94.02;98083.56;6157743;28;97070;-64
2023/11/27 01:27:13;;;;;;;;;11.40;10.00;;;;;5.24;93.91;98077.19;6165276;28;97026;-69
2023/11/27 01:30:19;;;;;;;;;11.40;11.00;;;;;5.17;94.29;98069.19;6172628;28;96399;-69
2023/11/27 01:33:23;;;;;;;;;14.00;13.00;;;;;5.18;93.40;98068.13;6171796;28;96304;-69
2023/11/27 01:36:27;;;;;;;;;13.40;13.40;;;;;5.18;94.46;98070.81;6157098;28;96444;-70
2023/11/27 01:39:30;;;;;;;;;11.00;10.00;;;;;5.17;95.38;98069.19;6189421;28;96662;-69
2023/11/27 01:42:33;;;;;;;;;13.00;12.20;;;;;5.17;95.80;98066.53;6190144;28;96828;-69
2023/11/27 01:45:38;;;;;;;;;13.00;12.00;;;;;5.14;96.72;98064.25;6172766;28;97069;-69
2023/11/27 01:48:42;;;;;;;;;13.00;12.00;;;;;5.11;96.71;98055.81;6172857;28;96532;-69
2023/11/27 01:51:46;;;;;;;;;17.50;16.00;;;;;5.19;97.46;98047.59;6172036;28;96659;-69
2023/11/27 01:54:51;;;;;;;;;14.60;14.60;;;;;5.18;97.61;98045.97;6172042;28;96454;-69
2023/11/27 01:57:55;;;;;;;;;8.00;8.00;;;;;5.25;97.72;98044.09;6188773;28;96287;-69
2023/11/27 02:01:00;;;;;;;;;16.00;14.75;;;;;5.22;97.94;98045.34;6172061;28;96283;-75
2023/11/27 02:04:03;;;;;;;;;15.50;15.50;;;;;5.15;97.95;98044.53;6231365;22;96270;-65
2023/11/27 02:07:07;;;;;;;;;13.60;11.60;;;;;5.15;98.80;98038.34;6200678;28;96371;-63
2023/11/27 02:10:11;;;;;;;;;10.20;10.20;;;;;5.14;98.65;98024.16;6195324;28;96628;-63
2023/11/27 02:13:15;;;;;;;;;16.60;15.00;;;;;5.10;98.78;98025.63;6234021;28;96455;-62
2023/11/27 02:16:20;;;;;;;;;15.40;14.40;;;;;5.06;99.50;98028.91;6235495;28;96894;-63
2023/11/27 02:19:23;;;;;;;;;15.00;15.00;;;;;5.02;99.87;98015.16;6200833;28;96609;-63
2023/11/27 02:22:27;;;;;;;;;15.00;14.00;;;;;4.99;100.00;98015.56;6206443;28;96276;-63
2023/11/27 02:25:31;;;;;;;;;15.60;14.60;;;;;4.93;100.00;98008.41;6188778;28;97417;-63
2023/11/27 02:28:34;;;;;;;;;15.60;14.20;;;;;4.85;100.00;98002.41;6194019;28;96650;-63
2023/11/27 02:31:38;;;;;;;;;13.00;13.00;;;;;4.85;100.00;98010.44;6203890;28;96274;-63
2023/11/27 02:34:46;;;;;;;;;15.00;14.00;;;;;4.87;100.00;97997.72;6214073;28;96309;-63
2023/11/27 02:37:49;;;;;;;;;14.00;13.00;;;;;4.83;100.00;97999.97;6233141;28;96300;-63
2023/11/27 02:40:54;;;;;;;;;16.40;12.40;;;;;4.76;100.00;97996.47;6234076;28;96583;-63
2023/11/27 02:43:57;;;;;;;;;17.75;16.25;;;;;4.69;100.00;98003.69;6219261;28;96419;-63
2023/11/27 02:47:00;;;;;;;;;16.20;13.80;;;;;4.69;100.00;97999.13;6191302;28;96960;-63
2023/11/27 02:50:05;;;;;;;;;15.80;14.60;;;;;4.72;100.00;97995.25;6191979;28;96857;-63
2023/11/27 02:53:08;;;;;;;;;16.00;14.00;;;;;4.70;100.00;97994.63;6202405;28;96950;-62
2023/11/27 02:56:13;;;;;;;;;15.40;14.40;;;;;4.71;100.00;98004.28;6201199;28;96358;-63
2023/11/27 02:59:18;;;;;;;;;18.40;17.00;;;;;4.75;100.00;98001.00;6209068;28;96386;-63
2023/11/27 03:02:22;;;;;;;;;16.00;15.00;;;;;4.66;100.00;97991.56;6216207;28;96813;-64
2023/11/27 03:05:25;;;;;;;;;17.60;17.00;;;;;4.67;100.00;97997.72;6215402;28;98367;-63
2023/11/27 03:08:28;;;;;;;;;19.00;17.40;;;;;4.65;100.00;97995.25;6217291;28;96356;-63
2023/11/27 03:11:33;;;;;;;;;19.60;18.60;;;;;4.66;100.00;97990.72;6232911;28;96284;-63
2023/11/27 03:14:36;;;;;;;;;17.00;16.00;;;;;4.57;100.00;97990.13;6220344;28;96340;-63
2023/11/27 03:17:39;;;;;;;;;22.50;21.00;;;;;4.54;100.00;97971.88;6218415;28;96337;-66
2023/11/27 03:20:45;;;;;;;;;15.00;14.25;;;;;4.53;100.00;97982.72;6204290;28;97532;-66
2023/11/27 03:23:48;;;;;;;;;13.25;13.25;;;;;4.50;100.00;97977.78;6195633;28;96456;-66
2023/11/27 03:26:52;;;;;;;;;20.00;18.80;;;;;4.46;100.00;97963.22;6196180;28;96189;-66
2023/11/27 03:29:56;;;;;;;;;15.50;15.50;;;;;4.48;100.00;97959.31;6196199;28;96545;-66
2023/11/27 03:32:59;;;;;;;;;19.50;18.00;;;;;4.47;100.00;97960.34;6178908;28;96417;-65
2023/11/27 03:36:04;;;;;;;;;12.25;12.25;;;;;4.48;100.00;97959.31;6212504;28;96273;-66
2023/11/27 03:39:07;;;;;;;;;18.00;17.00;;;;;4.43;100.00;97959.13;6196064;28;96361;-66
2023/11/27 03:42:12;;;;;;;;;14.80;14.00;;;;;4.35;100.00;97953.97;6177986;28;96763;-66
2023/11/27 03:45:16;;;;;;;;;15.40;14.40;;;;;4.31;100.00;97958.91;6172124;28;98964;-66
2023/11/27 03:48:19;;;;;;;;;16.60;15.60;;;;;4.26;100.00;97964.03;6176553;28;98486;-66
2023/11/27 03:51:23;;;;;;;;;15.00;14.40;;;;;4.27;100.00;97962.19;6188692;28;96257;-66
2023/11/27 03:54:27;;;;;;;;;14.00;12.20;;;;;4.23;100.00;97945.78;6193065;28;96884;-66
2023/11/27 03:57:31;;;;;;;;;13.00;12.00;;;;;4.35;100.00;97954.78;6194709;28;96682;-66
2023/11/27 04:00:34;;;;;;;;;13.80;12.80;;;;;4.43;100.00;97959.13;6189529;28;98458;-66
2023/11/27 04:03:38;;;;;;;;;14.20;12.20;;;;;4.38;100.00;97956.25;6170315;28;96278;-66
2023/11/27 04:06:45;;;;;;;;;14.00;14.00;;;;;4.50;100.00;97951.91;6188844;28;96397;-66
2023/11/27 04:09:48;;;;;;;;;13.25;13.00;;;;;4.56;100.00;97952.94;6199476;28;96427;-66
2023/11/27 04:12:53;;;;;;;;;13.50;12.25;;;;;4.57;100.00;97955.41;6186058;28;96361;-66
2023/11/27 04:15:56;;;;;;;;;16.00;15.00;;;;;4.61;100.00;97958.50;6177553;28;96813;-66
2023/11/27 04:18:59;;;;;;;;;13.60;13.00;;;;;4.61;100.00;97955.81;6191692;28;96245;-66
2023/11/27 04:22:02;;;;;;;;;14.00;14.00;;;;;4.58;100.00;97959.75;6183857;28;97164;-66
2023/11/27 04:25:06;;;;;;;;;14.50;14.00;;;;;4.55;100.00;97956.63;6189360;28;96534;-66
2023/11/27 04:28:11;;;;;;;;;13.00;12.60;;;;;4.53;100.00;97956.88;6165386;28;98394;-65
2023/11/27 04:31:14;;;;;;;;;12.00;12.00;;;;;4.59;100.00;97955.22;6199835;28;97287;-66
2023/11/27 04:34:17;;;;;;;;;14.60;13.00;;;;;4.55;100.00;97949.47;6190047;28;98707;-65
2023/11/27 04:37:21;;;;;;;;;14.00;13.40;;;;;4.57;100.00;97950.09;6207674;28;96533;-67
2023/11/27 04:40:24;;;;;;;;;16.00;16.00;;;;;4.56;100.00;97947.63;6187142;28;96424;-65
2023/11/27 04:43:29;;;;;;;;;16.25;15.75;;;;;4.58;100.00;97946.41;6203809;28;97569;-65
2023/11/27 04:46:32;;;;;;;;;12.00;12.00;;;;;4.54;100.00;97944.34;6193401;28;96485;-65
2023/11/27 04:49:36;;;;;;;;;14.60;14.00;;;;;4.58;100.00;97946.41;6182609;28;97716;-65
2023/11/27 04:52:39;;;;;;;;;15.75;14.75;;;;;4.61;100.00;97955.81;6185306;28;96647;-65
2023/11/27 04:55:42;;;;;;;;;14.25;12.75;;;;;4.59;100.00;97968.56;6162273;28;98562;-65
2023/11/27 04:58:46;;;;;;;;;14.80;14.00;;;;;4.62;100.00;97971.63;6179758;28;96771;-66
2023/11/27 05:01:50;;;;;;;;;18.25;18.25;;;;;4.67;100.00;97976.38;6166842;28;97189;-66
2023/11/27 05:04:53;;;;;;;;;17.20;17.20;;;;;4.66;100.00;97972.88;6207318;28;96294;-66
2023/11/27 05:07:56;;;;;;;;;13.80;12.80;;;;;4.69;100.00;97960.97;6168225;28;96683;-66
2023/11/27 05:10:59;;;;;;;;;14.00;14.00;;;;;4.78;100.00;97962.41;6171785;28;96724;-66
2023/11/27 05:14:04;;;;;;;;;14.40;14.40;;;;;4.72;100.00;97966.72;6211388;28;96489;-66
2023/11/27 05:17:08;;;;;;;;;14.00;13.00;;;;;4.77;100.00;97958.06;6174534;28;98341;-64
2023/11/27 05:20:12;;;;;;;;;12.00;11.50;;;;;4.76;100.00;97956.44;6192461;28;96381;-65
2023/11/27 05:23:15;;;;;;;;;10.80;10.20;;;;;4.80;100.00;97953.13;6191334;28;96453;-66
2023/11/27 05:26:18;;;;;;;;;13.00;12.40;;;;;4.82;100.00;97955.59;6193590;28;96520;-66
2023/11/27 05:29:22;;;;;;;;;12.33;11.33;;;;;4.89;100.00;97959.06;6174694;28;98581;-66
2023/11/27 05:32:26;;;;;;;;;12.75;12.25;;;;;4.86;100.00;97953.34;6196855;28;97089;-66
2023/11/27 05:35:30;;;;;;;;;15.00;14.40;;;;;4.83;100.00;97957.25;6187069;28;97012;-61
2023/11/27 05:38:33;;;;;;;;;15.50;14.00;;;;;4.78;100.00;97952.53;6191619;28;96318;-60
2023/11/27 05:41:37;;;;;;;;;14.00;13.50;;;;;4.85;100.00;97951.69;6181080;28;98003;-60
2023/11/27 05:44:42;;;;;;;;;14.00;13.20;;;;;4.78;100.00;97952.53;6178848;28;99154;-60
2023/11/27 05:47:45;;;;;;;;;16.20;15.40;;;;;4.75;100.00;97954.78;6177027;28;97198;-60
2023/11/27 05:50:49;;;;;;;;;14.00;13.00;;;;;4.72;100.00;97957.88;6179093;28;99220;-59
2023/11/27 05:53:55;;;;;;;;;13.60;13.60;;;;;4.71;100.00;97961.56;6208915;28;96652;-60
2023/11/27 05:56:59;;;;;;;;;14.40;13.20;;;;;4.73;100.00;97954.19;6182671;28;96817;-59
2023/11/27 06:00:04;;;;;;;;;14.00;13.00;;;;;4.75;100.00;97962.78;6220098;28;96742;-59
2023/11/27 06:03:14;;;;;;;;;15.00;14.00;;;;;4.73;100.00;97964.88;6191584;28;96858;-60
2023/11/27 06:06:17;;;;;;;;;15.80;15.80;;;;;4.71;100.00;97953.56;6198716;28;96580;-59
2023/11/27 06:09:24;;;;;;;;;13.00;12.40;;;;;4.69;100.00;97958.31;6192745;28;96835;-60
2023/11/27 06:12:27;;;;;;;;;14.00;13.00;;;;;4.55;100.00;97952.13;6203921;28;96401;-61
2023/11/27 06:15:32;;;;;;;;;14.40;14.00;;;;;4.55;100.00;97957.47;6204035;28;97711;-61
2023/11/27 06:18:35;;;;;;;;;13.00;12.80;;;;;4.52;100.00;97959.72;6207783;28;96850;-60
2023/11/27 06:21:38;;;;;;;;;17.00;15.00;;;;;4.49;100.00;97960.16;6210541;28;96362;-59
2023/11/27 06:24:41;;;;;;;;;19.20;17.20;;;;;4.32;100.00;97946.38;6198833;28;96325;-60
2023/11/27 06:27:45;;;;;;;;;17.33;14.33;;;;;4.39;100.00;97967.75;6217430;28;96896;-59
2023/11/27 06:30:50;;;;;;;;;15.00;14.00;;;;;4.38;100.00;97964.25;6213222;28;96239;-60
2023/11/27 06:33:53;;;;;;;;;18.00;17.00;;;;;4.36;100.00;97966.28;6206157;28;97469;-59
2023/11/27 06:36:56;;;;;;;;;16.80;15.80;;;;;4.36;100.00;97967.13;6212778;28;96260;-60
2023/11/27 06:40:00;;;;;;;;;14.20;13.00;;;;;4.46;100.00;97965.88;6204015;28;97167;-60
2023/11/27 06:43:03;;;;;;;;;15.50;15.00;;;;;4.56;100.00;97964.44;6190823;28;96127;-61
2023/11/27 06:46:11;;;;;;;;;14.00;13.00;;;;;4.57;100.00;97966.09;6192141;28;96624;-63
2023/11/27 06:49:14;;;;;;;;;15.40;15.40;;;;;4.57;100.00;97957.28;6216660;28;96928;-63
2023/11/27 06:52:18;;;;;;;;;13.00;12.00;;;;;4.62;100.00;97952.13;6196931;28;98421;-63
2023/11/27 06:55:21;;;;;;;;;15.80;14.80;;;;;4.57;100.00;97958.09;6197600;28;99027;-63
2023/11/27 06:58:24;;;;;;;;;14.00;13.00;;;;;4.58;100.00;97948.25;6213337;28;96569;-63
2023/11/27 07:01:29;;;;;;;;;16.50;15.50;;;;;4.69;100.00;97958.31;6212916;28;96584;-62
2023/11/27 07:04:32;;;;;;;;;16.60;15.60;;;;;4.70;100.00;97959.91;6207120;28;96631;-63
2023/11/27 07:07:36;;;;;;;;;18.20;17.20;;;;;4.71;100.00;97961.56;6208700;28;97513;-62
2023/11/27 07:10:39;;;;;;;;;17.40;16.00;;;;;4.73;100.00;97967.53;6213884;28;96266;-63
2023/11/27 07:13:42;;;;;;;;;15.00;13.00;;;;;4.79;100.00;97969.34;6216030;28;96357;-62
2023/11/27 07:16:46;;;;;;;;;15.40;13.00;;;;;4.83;100.00;97975.13;6197157;28;96243;-62
2023/11/27 07:19:50;;;;;;;;;17.00;15.25;;;;;4.95;100.00;97973.44;6212242;28;96950;-62
2023/11/27 07:22:53;;;;;;;;;13.00;12.00;;;;;5.01;100.00;97965.44;6217020;28;96267;-63
2023/11/27 07:25:56;;;;;;;;;15.25;14.75;;;;;5.14;100.00;97965.38;6217977;28;96312;-62
2023/11/27 07:29:00;;;;;;;;;17.40;16.00;;;;;5.23;100.00;97977.50;6195684;28;96201;-63
2023/11/27 07:32:05;;;;;;;;;16.60;15.60;;;;;5.30;100.00;97979.34;6206041;28;96894;-63
2023/11/27 07:35:10;;;;;;;;;17.00;14.25;;;;;5.33;100.00;97976.22;6202260;28;97409;-62
2023/11/27 07:38:13;;;;;;;;;20.00;18.00;;;;;5.36;100.00;97971.31;6215804;28;96917;-63
2023/11/27 07:41:16;;;;;;;;;20.00;18.50;;;;;5.32;100.00;97966.59;6198823;28;96666;-63
2023/11/27 07:44:25;;;;;;;;;17.20;14.80;;;;;5.43;100.00;97977.44;6207781;28;96692;-62
2023/11/27 07:47:29;;;;;;;;;18.50;17.75;;;;;5.50;100.00;97974.75;6214829;28;96225;-63
2023/11/27 07:50:33;;;;;;;;;15.60;14.60;;;;;5.51;100.00;97976.38;6197254;28;97335;-63
2023/11/27 07:53:36;;;;;;;;;16.20;15.80;;;;;5.52;100.00;97978.84;6200533;28;96650;-62
2023/11/27 07:56:39;;;;;;;;;21.60;18.60;;;;;5.72;100.00;97991.31;6209096;28;96821;-63
2023/11/27 07:59:43;;;;;;;;;20.00;19.60;;;;;5.69;100.00;97979.19;6186856;28;97302;-63
2023/11/27 08:02:51;;;;;;;;;20.00;18.00;;;;;5.80;100.00;97975.84;6184358;28;96655;-63
2023/11/27 08:05:54;;;;;;;;;20.60;20.00;;;;;5.99;100.00;97974.13;6204332;28;96333;-62
2023/11/27 08:08:58;;;;;;;;;17.80;17.80;;;;;6.21;100.00;97979.94;6204728;28;96307;-62
2023/11/27 08:12:01;;;;;;;;;22.00;19.00;;;;;6.46;100.00;97975.44;6187252;28;96662;-63
2023/11/27 08:15:06;;;;;;;;;24.00;22.00;;;;;6.62;100.00;97980.28;6204936;28;96336;-63
2023/11/27 08:18:11;;;;;;;;;21.00;21.00;;;;;6.67;100.00;97990.31;6204435;28;96505;-63
2023/11/27 08:21:15;;;;;;;;;20.00;20.00;;;;;6.56;100.00;97988.34;6185031;28;96358;-63
2023/11/27 08:24:18;;;;;;;;;26.00;25.00;;;;;6.57;100.00;97985.47;6203259;28;97009;-63
2023/11/27 08:27:26;;;;;;;;;24.60;22.00;;;;;6.61;100.00;97981.31;6185343;28;96198;-63
2023/11/27 08:30:32;;;;;;;;;22.00;19.50;;;;;6.66;100.00;97980.66;6171576;28;96718;-63
2023/11/27 08:33:37;;;;;;;;;24.00;22.20;;;;;6.68;100.00;97975.91;6189222;28;96261;-62
2023/11/27 08:36:40;;;;;;;;;22.00;22.00;;;;;6.80;100.00;97984.84;6171005;28;96748;-63
2023/11/27 08:39:46;;;;;;;;;22.00;22.00;;;;;6.78;100.00;97985.09;6169963;28;98487;-64
2023/11/27 08:42:49;;;;;;;;;19.00;17.80;;;;;6.71;100.00;97989.66;6204310;28;96903;-63
2023/11/27 08:45:52;;;;;;;;;24.00;23.00;;;;;6.60;100.00;97992.25;6204859;28;96278;-63
2023/11/27 08:48:57;;;;;;;;;24.00;21.40;;;;;6.52;100.00;97986.13;6202524;28;96847;-63
2023/11/27 08:52:00;;;;;;;;;24.75;23.25;;;;;6.54;100.00;97983.22;6187927;28;98641;-63
2023/11/27 08:55:05;;;;;;;;;26.00;24.00;;;;;6.51;100.00;97965.72;6205060;28;96287;-63
2023/11/27 08:58:09;;;;;;;;;23.00;21.00;;;;;6.56;100.00;97970.44;6205737;28;96281;-63
2023/11/27 09:01:12;;;;;;;;;26.00;25.00;;;;;6.86;100.00;97974.09;6205318;28;96905;-63
2023/11/27 09:04:18;;;;;;;;;22.50;21.50;;;;;8.27;100.00;97974.66;6188297;28;98471;-63
2023/11/27 09:07:23;;;;;;;;;25.00;24.00;;;;;9.23;99.50;97965.47;6180262;28;96140;-66
2023/11/27 09:10:27;;;;;;;;;22.00;21.00;;;;;9.25;95.39;97954.44;6187169;28;96496;-66
2023/11/27 09:13:30;;;;;;;;;25.20;23.00;;;;;9.03;92.68;97963.13;6187394;28;96918;-66
2023/11/27 09:16:33;;;;;;;;;29.60;27.00;;;;;8.67;95.14;97966.03;6169431;28;96444;-67
2023/11/27 09:19:38;;;;;;;;;27.00;25.40;;;;;8.43;95.96;97975.09;6187038;28;96342;-66
2023/11/27 09:22:42;;;;;;;;;24.00;23.00;;;;;8.13;98.06;97967.03;6186952;28;97517;-66
2023/11/27 09:25:45;;;;;;;;;28.60;24.60;;;;;7.84;100.00;97964.13;6197267;28;98354;-67
2023/11/27 09:28:48;;;;;;;;;21.40;19.00;;;;;7.78;99.30;97962.34;6197587;28;96834;-67
2023/11/27 09:31:51;;;;;;;;;20.40;19.40;;;;;7.70;99.71;97949.25;6216277;28;97351;-65
2023/11/27 09:34:56;;;;;;;;;17.80;17.80;;;;;7.59;96.01;97957.22;6188919;28;96196;-66
2023/11/27 09:38:00;;;;;;;;;18.40;16.40;;;;;7.59;94.37;97954.53;6191155;28;96324;-67
2023/11/27 09:41:04;;;;;;;;;16.00;15.00;;;;;7.52;91.81;97954.63;6187027;28;96564;-67
2023/11/27 09:44:10;;;;;;;;;16.50;15.00;;;;;7.58;89.42;97958.25;6209043;28;96310;-66
2023/11/27 09:47:13;;;;;;;;;17.00;15.40;;;;;7.49;89.13;97962.28;6197956;28;96403;-66
2023/11/27 09:50:20;;;;;;;;;14.00;13.00;;;;;7.53;89.33;97963.47;6198272;28;96252;-67
2023/11/27 09:53:34;;;;;;;;;19.00;17.00;;;;;7.40;86.54;97951.06;6206179;28;96663;-67
2023/11/27 09:56:38;;;;;;;;;18.00;17.00;;;;;7.72;88.29;97959.75;6172778;28;96405;-66
2023/11/27 09:59:42;;;;;;;;;19.40;18.40;;;;;8.04;85.79;97957.66;6202807;28;96992;-66
2023/11/27 10:02:48;;;;;;;;;19.20;18.20;;;;;8.51;81.63;97956.75;6214957;28;96331;-67
2023/11/27 10:05:54;;;;;;;;;23.00;20.00;;;;;9.57;73.95;97926.91;6215455;28;96396;-69
2023/11/27 10:09:04;;;;;;;;;18.00;17.00;;;;;11.21;63.25;97932.97;6215890;28;97488;-67
2023/11/27 10:12:07;;;;;;;;;14.40;13.40;;;;;12.10;54.24;97944.34;6197116;28;98342;-68
2023/11/27 10:15:11;;;;;;;;;15.00;14.00;;;;;13.30;47.38;97933.97;6197451;28;99173;-67
2023/11/27 10:18:18;;;;;;;;;14.75;13.00;;;;;15.11;41.99;97924.59;6197299;28;96639;-62
2023/11/27 10:21:25;;;;;;;;;12.80;11.80;;;;;16.44;38.34;97926.53;6197365;28;97259;-62
2023/11/27 10:24:31;;;;;;;;;12.50;11.00;;;;;16.48;37.57;97924.84;6197260;28;96627;-62
2023/11/27 10:27:34;;;;;;;;;15.00;14.00;;;;;16.84;36.52;97917.28;6215577;28;96900;-62
2023/11/27 10:30:37;;;;;;;;;17.40;15.40;;;;;16.90;35.97;97913.41;6196683;28;96649;-62
2023/11/27 10:33:41;;;;;;;;;16.00;14.60;;;;;16.53;35.84;97907.69;6214292;28;96311;-62
2023/11/27 10:36:56;;;;;;;;;13.00;13.00;;;;;16.16;35.77;97914.47;6179857;28;99662;-62
2023/11/27 10:39:59;;;;;;;;;15.00;13.00;;;;;16.87;34.66;97911.25;6215487;28;96928;-62
2023/11/27 10:43:04;;;;;;;;;12.25;12.00;;;;;18.15;33.22;97906.81;6213943;28;96257;-62
2023/11/27 10:46:09;;;;;;;;;12.60;11.20;;;;;19.11;30.79;97902.56;6213300;28;96582;-63
2023/11/27 10:49:15;;;;;;;;;11.75;10.00;;;;;20.07;29.92;97905.34;6211731;28;96398;-63
2023/11/27 10:52:21;;;;;;;;;10.00;9.80;;;;;19.15;29.97;97897.31;6190836;28;97045;-63
2023/11/27 10:55:27;;;;;;;;;11.00;10.00;;;;;17.98;30.46;97904.59;6196715;28;97002;-62
2023/11/27 10:58:31;;;;;;;;;12.00;11.00;;;;;17.26;32.05;97889.34;6190829;28;96901;-62
2023/11/27 11:01:39;;;;;;;;;12.20;10.00;;;;;16.21;33.12;97881.81;6179667;28;97256;-62
2023/11/27 11:04:51;;;;;;;;;12.80;10.80;;;;;15.42;34.97;97890.88;6183534;28;96540;-62
2023/11/27 11:07:59;;;;;;;;;14.25;13.25;;;;;14.46;36.17;97891.03;6182081;28;97653;-62
2023/11/27 11:11:06;;;;;;;;;14.40;12.40;;;;;13.85;37.49;97890.91;6199761;28;96662;-62
2023/11/27 11:14:13;;;;;;;;;13.40;13.00;;;;;14.82;37.54;97886.38;6201463;28;96385;-61
2023/11/27 11:17:29;;;;;;;;;11.00;10.00;;;;;16.00;35.14;97877.59;6182254;28;96357;-62
2023/11/27 11:20:43;;;;;;;;;14.00;12.00;;;;;17.11;33.26;97875.88;6183157;28;97295;-63
2023/11/27 11:23:57;;;;;;;;;12.40;11.60;;;;;18.46;31.78;97882.63;6201031;28;96315;-62
2023/11/27 11:27:11;;;;;;;;;14.00;13.60;;;;;19.62;29.62;97875.09;6192762;28;96934;-63
2023/11/27 11:30:16;;;;;;;;;10.40;10.40;;;;;20.35;28.99;97865.03;6187302;28;96829;-63
2023/11/27 11:33:22;;;;;;;;;12.00;11.00;;;;;20.88;28.51;97870.59;6205973;28;96657;-63
2023/11/27 11:36:32;;;;;;;;;10.00;9.40;;;;;21.66;28.30;97861.63;6186328;28;96921;-64
2023/11/27 11:39:37;;;;;;;;;10.60;10.00;;;;;22.05;26.85;97855.28;6187645;28;99986;-64
2023/11/27 11:42:44;;;;;;;;;10.00;9.00;;;;;22.61;26.26;97850.75;6203270;28;96421;-64
2023/11/27 11:45:47;;;;;;;;;11.00;10.40;;;;;22.84;25.79;97836.53;6204300;28;96586;-64
2023/11/27 11:48:55;;;;;;;;;7.00;7.00;;;;;22.76;24.88;97837.38;6204537;28;96309;-64
2023/11/27 11:52:03;;;;;;;;;9.00;9.00;;;;;22.39;24.62;97827.81;6202599;28;96356;-64
2023/11/27 11:55:14;;;;;;;;;8.00;7.00;;;;;22.37;24.50;97826.56;6213589;28;96291;-64
2023/11/27 11:58:28;;;;;;;;;8.00;7.33;;;;;22.27;24.53;97824.94;6217649;28;96301;-64
2023/11/27 12:01:33;;;;;;;;;7.60;7.00;;;;;22.13;24.87;97809.75;6218103;28;96481;-64
2023/11/27 12:04:40;;;;;;;;;8.25;8.00;;;;;22.24;24.33;97833.81;6199843;28;98571;-64
2023/11/27 12:07:45;;;;;;;;;8.80;6.20;;;;;21.84;24.99;97813.91;6217990;28;96493;-64
2023/11/27 12:10:52;;;;;;;;;7.00;6.40;;;;;21.55;24.81;97816.44;6199555;28;96975;-63
2023/11/27 12:13:56;;;;;;;;;8.00;8.00;;;;;21.56;25.51;97815.28;6199844;28;96251;-63
2023/11/27 12:17:00;;;;;;;;;8.00;7.40;;;;;21.48;25.41;97821.56;6218685;28;96409;-63
2023/11/27 12:20:04;;;;;;;;;8.00;7.00;;;;;21.44;25.33;97817.84;6200609;28;96652;-62
2023/11/27 12:23:08;;;;;;;;;7.20;7.20;;;;;20.82;24.87;97812.38;6189223;28;98562;-63
2023/11/27 12:26:17;;;;;;;;;11.50;9.00;;;;;20.62;25.71;97815.66;6193842;28;96915;-62
2023/11/27 12:29:21;;;;;;;;;5.60;5.60;;;;;20.14;25.26;97813.50;6181604;28;96618;-64
2023/11/27 12:32:24;;;;;;;;;7.80;6.00;;;;;19.54;26.16;97807.47;6183905;28;96871;-62
2023/11/27 12:35:28;;;;;;;;;9.00;8.50;;;;;18.89;26.77;97804.91;6202778;28;96329;-63
2023/11/27 12:38:34;;;;;;;;;7.00;6.40;;;;;18.08;27.79;97806.25;6194387;28;96655;-61
2023/11/27 12:41:39;;;;;;;;;9.00;7.80;;;;;17.42;28.71;97814.53;6180925;28;97049;-61
2023/11/27 12:44:48;;;;;;;;;12.00;12.00;;;;;16.72;29.67;97805.22;6159896;28;97217;-62
2023/11/27 12:47:53;;;;;;;;;13.00;12.00;;;;;16.19;30.63;97794.25;6178714;28;96438;-61
2023/11/27 12:50:57;;;;;;;;;14.20;13.00;;;;;15.73;31.39;97798.41;6186262;28;96756;-61
2023/11/27 12:54:01;;;;;;;;;8.50;8.50;;;;;15.25;32.42;97784.47;6199708;28;98104;-64
2023/11/27 12:57:08;;;;;;;;;10.60;10.00;;;;;15.02;33.27;97785.94;6194108;28;96847;-61
2023/11/27 13:00:13;;;;;;;;;12.00;10.00;;;;;14.69;33.62;97786.56;6196272;28;96720;-62
2023/11/27 13:03:19;;;;;;;;;12.00;10.60;;;;;14.03;34.79;97786.59;6192306;28;97122;-62
2023/11/27 13:06:27;;;;;;;;;12.50;11.00;;;;;13.74;35.66;97790.91;6194500;28;96529;-60
2023/11/27 13:09:30;;;;;;;;;12.00;10.00;;;;;13.50;36.56;97784.34;6196689;28;98111;-61
2023/11/27 13:12:35;;;;;;;;;8.00;8.00;;;;;13.40;36.59;97779.72;6193350;28;96760;-62
2023/11/27 13:15:39;;;;;;;;;10.00;9.00;;;;;13.20;37.13;97776.94;6166005;28;100255;-61
2023/11/27 13:18:42;;;;;;;;;11.80;9.00;;;;;13.09;37.75;97767.97;6185268;28;96633;-60
2023/11/27 13:21:53;;;;;;;;;11.40;11.00;;;;;12.86;38.52;97768.38;6175983;28;97347;-61
2023/11/27 13:24:56;;;;;;;;;13.00;11.60;;;;;12.77;39.00;97765.38;6193524;28;96974;-60
2023/11/27 13:28:01;;;;;;;;;11.33;10.33;;;;;12.54;39.34;97766.63;6185045;28;96653;-61
2023/11/27 13:31:06;;;;;;;;;12.00;11.40;;;;;12.38;40.31;97759.47;6197968;28;96213;-60
2023/11/27 13:34:32;;;;;;;;;10.20;8.00;;;;;11.77;40.35;97739.31;6185816;28;96345;-60
2023/11/27 13:37:34;;;;;;;;;9.00;8.00;;;;;11.29;42.98;97750.94;6174484;28;96694;-61
2023/11/27 13:40:39;;;;;;;;;11.00;10.00;;;;;10.76;44.77;97755.19;6197180;28;96333;-61
2023/11/27 13:43:46;;;;;;;;;11.80;10.80;;;;;10.41;45.26;97752.81;6193795;28;96588;-61
2023/11/27 13:46:50;;;;;;;;;12.00;10.20;;;;;10.25;47.03;97755.56;6167246;28;98563;-64
2023/11/27 13:49:55;;;;;;;;;11.20;11.20;;;;;9.85;47.99;97724.22;6177805;28;97686;-67
2023/11/27 13:52:59;;;;;;;;;13.80;12.00;;;;;9.82;49.56;97757.00;6186292;28;96559;-66
2023/11/27 13:56:05;;;;;;;;;12.60;11.00;;;;;9.71;50.46;97760.59;6196066;28;96693;-66
2023/11/27 13:59:17;;;;;;;;;13.00;12.00;;;;;9.36;52.62;97759.97;6191366;28;96940;-66
2023/11/27 14:02:20;;;;;;;;;13.80;12.80;;;;;8.92;55.15;97767.72;6180329;28;96957;-66
2023/11/27 14:05:25;;;;;;;;;15.00;14.67;;;;;8.56;58.15;97765.34;6171943;28;96892;-66
2023/11/27 14:08:39;;;;;;;;;15.40;13.40;;;;;8.31;60.15;97760.22;6196898;28;96563;-66
2023/11/27 14:11:47;;;;;;;;;12.40;11.00;;;;;8.09;61.96;97751.09;6161927;28;98432;-65
2023/11/27 14:18:49;;;;;;;;;14.00;12.60;;;;;7.66;66.47;97749.56;6189666;28;96812;-66